createdAt,value
2023-01-04T00:02:11.504Z,0.50
2023-01-04T00:04:40.205Z,0.63
2023-01-04T00:07:08.810Z,0.75
2023-01-04T00:09:37.395Z,0.81
2023-01-04T00:12:06.465Z,0.70
2023-01-04T00:14:35.021Z,0.73
2023-01-04T00:17:04.662Z,0.75
2023-01-04T00:19:33.736Z,0.84
2023-01-04T00:22:02.123Z,0.84
2023-01-04T00:24:30.353Z,0.78
2023-01-04T00:26:58.592Z,0.71
2023-01-04T00:29:27.185Z,0.64
2023-01-04T00:31:55.698Z,0.62
2023-01-04T00:34:25.311Z,0.61
2023-01-04T00:36:53.896Z,0.58
2023-01-04T00:39:22.393Z,0.64
2023-01-04T00:42:01.255Z,0.65
2023-01-04T00:44:30.835Z,0.70
2023-01-04T00:46:59.485Z,0.67
2023-01-04T00:49:30.613Z,0.67
2023-01-04T00:51:59.444Z,0.65
2023-01-04T00:54:28.227Z,0.64
2023-01-04T00:56:56.889Z,0.63
2023-01-04T00:59:25.572Z,0.67
2023-01-04T01:01:54.657Z,0.67
2023-01-04T01:04:25.412Z,0.68
2023-01-04T01:06:55.283Z,0.66
2023-01-04T01:09:23.958Z,0.66
2023-01-04T01:11:53.871Z,0.64
2023-01-04T01:14:25.757Z,0.65
2023-01-04T01:16:58.058Z,0.64
2023-01-04T01:19:29.562Z,0.65
2023-01-04T01:22:00.093Z,0.66
2023-01-04T01:24:29.420Z,0.64
2023-01-04T01:26:58.007Z,0.67
2023-01-04T01:29:26.722Z,0.66
2023-01-04T01:31:55.399Z,0.68
2023-01-04T01:34:23.864Z,0.69
2023-01-04T01:36:52.530Z,0.72
2023-01-04T01:39:22.252Z,0.78
2023-01-04T01:41:50.940Z,0.83
2023-01-04T01:45:00.027Z,0.83
2023-01-04T01:47:35.250Z,0.83
2023-01-04T01:50:06.233Z,0.85
2023-01-04T01:52:41.546Z,0.88
2023-01-04T01:55:13.860Z,0.90
2023-01-04T01:57:43.066Z,0.90
2023-01-04T02:00:16.625Z,0.91
2023-01-04T02:02:56.781Z,0.96
2023-01-04T02:05:28.360Z,0.93
2023-01-04T02:07:56.592Z,0.89
2023-01-04T02:10:27.307Z,0.85
2023-01-04T02:12:56.064Z,0.87
2023-01-04T02:15:29.641Z,0.86
2023-01-04T02:18:10.024Z,0.88
2023-01-04T02:20:48.257Z,0.90
2023-01-04T02:24:02.803Z,0.95
2023-01-04T02:27:33.646Z,0.93
2023-01-04T02:30:30.430Z,0.95
2023-01-04T02:33:22.366Z,0.98
2023-01-04T02:36:06.184Z,1.05
2023-01-04T02:38:48.017Z,1.03
2023-01-04T02:41:29.513Z,1.04
2023-01-04T02:44:25.484Z,1.08
2023-01-04T02:47:03.486Z,1.03
2023-01-04T02:49:51.512Z,0.96
2023-01-04T02:52:21.357Z,0.83
2023-01-04T02:54:54.380Z,0.87
2023-01-04T02:57:36.492Z,0.90
2023-01-04T03:00:20.662Z,0.95
2023-01-04T03:03:37.195Z,1.01
2023-01-04T03:06:18.466Z,1.13
2023-01-04T03:08:55.622Z,1.17
2023-01-04T03:11:50.206Z,1.10
2023-01-04T03:14:32.165Z,1.06
2023-01-04T03:17:06.312Z,1.15
2023-01-04T03:19:55.162Z,1.22
2023-01-04T03:22:52.461Z,1.26
2023-01-04T03:25:47.018Z,1.26
2023-01-04T03:28:36.529Z,1.31
2023-01-04T03:31:40.351Z,1.30
2023-01-04T03:34:26.471Z,1.31
2023-01-04T03:37:08.626Z,1.33
2023-01-04T03:40:12.447Z,1.32
2023-01-04T03:43:07.450Z,1.35
2023-01-04T03:46:02.465Z,1.39
2023-01-04T03:48:37.729Z,1.38
2023-01-04T03:51:16.417Z,1.30
2023-01-04T03:53:55.518Z,1.31
2023-01-04T03:56:27.731Z,1.30
2023-01-04T03:58:57.302Z,1.37
2023-01-04T04:01:27.974Z,1.41
2023-01-04T04:04:14.635Z,1.37
2023-01-04T04:07:00.691Z,1.44
2023-01-04T04:09:29.245Z,1.46
2023-01-04T04:11:59.546Z,1.49
2023-01-04T04:14:28.231Z,1.43
2023-01-04T04:16:56.888Z,1.42
2023-01-04T04:19:25.545Z,1.49
2023-01-04T04:21:53.959Z,1.55
2023-01-04T04:24:26.175Z,1.57
2023-01-04T04:26:56.097Z,1.61
2023-01-04T04:29:26.515Z,1.64
2023-01-04T04:31:55.226Z,1.68
2023-01-04T04:34:23.952Z,1.68
2023-01-04T04:36:52.485Z,1.74
2023-01-04T04:39:21.075Z,1.78
2023-01-04T04:41:48.355Z,1.83
2023-01-04T04:44:19.190Z,1.83
2023-01-04T04:46:50.632Z,1.76
2023-01-04T04:49:19.697Z,1.78
2023-01-04T04:51:48.820Z,1.81
2023-01-04T04:54:19.738Z,1.84
2023-01-04T04:56:48.977Z,1.87
2023-01-04T04:59:17.962Z,1.90
2023-01-04T05:01:48.119Z,1.92
2023-01-04T05:04:19.497Z,1.92
2023-01-04T05:06:50.276Z,1.95
2023-01-04T05:09:19.066Z,2.02
2023-01-04T05:12:05.432Z,2.07
2023-01-04T05:14:34.002Z,2.13
2023-01-04T05:17:03.783Z,2.21
2023-01-04T05:19:32.332Z,2.22
2023-01-04T05:22:00.620Z,2.29
2023-01-04T05:24:28.954Z,2.37
2023-01-04T05:26:57.653Z,2.36
2023-01-04T05:29:43.730Z,2.43
2023-01-04T05:32:13.373Z,2.50
2023-01-04T05:34:42.133Z,2.56
2023-01-04T05:37:10.435Z,2.64
2023-01-04T05:39:39.033Z,2.66
2023-01-04T05:42:24.650Z,2.69
2023-01-04T05:44:53.509Z,2.68
2023-01-04T05:47:24.290Z,2.69
2023-01-04T05:49:53.194Z,2.68
2023-01-04T05:52:22.040Z,2.71
2023-01-04T05:54:50.445Z,2.71
2023-01-04T05:57:19.076Z,2.73
2023-01-04T05:59:47.565Z,2.73
2023-01-04T06:02:18.846Z,2.72
2023-01-04T06:04:54.702Z,2.71
2023-01-04T06:07:28.829Z,2.71
2023-01-04T06:09:57.575Z,2.68
2023-01-04T06:12:26.241Z,2.67
2023-01-04T06:14:54.821Z,2.66
2023-01-04T06:17:23.628Z,2.65
2023-01-04T06:19:53.300Z,2.66
2023-01-04T06:22:22.241Z,2.66
2023-01-04T06:24:50.820Z,2.67
2023-01-04T06:27:19.696Z,2.66
2023-01-04T06:29:48.343Z,2.68
2023-01-04T06:32:17.094Z,2.67
2023-01-04T06:34:45.828Z,2.69
2023-01-04T06:37:15.391Z,2.73
2023-01-04T06:39:43.977Z,2.74
2023-01-04T06:42:32.603Z,2.79
2023-01-04T06:45:00.844Z,2.77
2023-01-04T06:47:29.163Z,2.80
2023-01-04T06:49:57.795Z,2.79
2023-01-04T06:52:28.239Z,2.79
2023-01-04T06:54:56.515Z,2.85
2023-01-04T06:57:25.127Z,2.90
2023-01-04T06:59:53.729Z,2.99
2023-01-04T07:02:22.396Z,2.99
2023-01-04T07:04:51.204Z,3.04
2023-01-04T07:07:19.572Z,3.12
2023-01-04T07:09:49.379Z,3.21
2023-01-04T07:12:17.925Z,3.28
2023-01-04T07:14:46.539Z,3.35
2023-01-04T07:17:14.929Z,3.33
2023-01-04T07:19:43.517Z,3.38
2023-01-04T07:22:12.227Z,3.40
2023-01-04T07:24:41.050Z,3.44
2023-01-04T07:27:11.498Z,3.46
2023-01-04T07:29:43.858Z,3.49
2023-01-04T07:32:14.218Z,3.48
2023-01-04T07:34:43.416Z,3.47
2023-01-04T07:37:13.088Z,3.47
2023-01-04T07:39:41.778Z,3.56
2023-01-04T07:42:11.516Z,3.73
2023-01-04T07:44:40.219Z,3.94
2023-01-04T07:47:08.839Z,4.09
2023-01-04T07:49:37.503Z,4.21
2023-01-04T07:52:06.224Z,4.44
2023-01-04T07:54:34.818Z,4.61
2023-01-04T07:57:03.461Z,4.77
2023-01-04T07:59:33.067Z,4.41
2023-01-04T08:02:01.807Z,4.27
2023-01-04T08:04:34.897Z,4.20
2023-01-04T08:07:03.868Z,4.23
2023-01-04T08:09:32.478Z,4.21
2023-01-04T08:12:00.805Z,4.16
2023-01-04T08:14:29.324Z,4.08
2023-01-04T08:16:59.372Z,4.10
2023-01-04T08:19:28.700Z,4.04
2023-01-04T08:21:57.277Z,4.02
2023-01-04T08:24:25.746Z,4.08
2023-01-04T08:26:54.318Z,4.13
2023-01-04T08:29:22.584Z,4.08
2023-01-04T08:31:50.990Z,4.21
2023-01-04T08:34:20.700Z,4.39
2023-01-04T08:36:53.278Z,4.65
2023-01-04T08:39:21.975Z,4.78
2023-01-04T08:42:00.535Z,5.13
2023-01-04T08:44:31.442Z,5.44
2023-01-04T08:46:59.860Z,5.59
2023-01-04T08:49:29.560Z,5.66
2023-01-04T08:51:58.433Z,5.58
2023-01-04T08:54:27.051Z,5.41
2023-01-04T08:56:55.732Z,5.09
2023-01-04T08:59:24.013Z,4.95
2023-01-04T09:01:52.759Z,4.84
2023-01-04T09:04:21.247Z,4.89
2023-01-04T09:06:51.160Z,5.02
2023-01-04T09:09:19.752Z,5.05
2023-01-04T09:11:48.661Z,5.19
2023-01-04T09:14:17.226Z,5.27
2023-01-04T09:16:46.054Z,5.38
2023-01-04T09:19:21.440Z,5.44
2023-01-04T09:21:51.878Z,5.41
2023-01-04T09:24:20.524Z,5.29
2023-01-04T09:26:49.174Z,5.22
2023-01-04T09:29:18.060Z,5.22
2023-01-04T09:31:46.861Z,5.18
2023-01-04T09:34:17.542Z,5.20
2023-01-04T09:36:48.762Z,5.21
2023-01-04T09:39:22.954Z,5.19
2023-01-04T09:41:58.274Z,5.18
2023-01-04T09:47:35.531Z,5.25
2023-01-04T09:50:13.899Z,5.30
2023-01-04T09:52:57.752Z,5.41
2023-01-04T09:55:39.779Z,5.42
2023-01-04T09:58:22.626Z,5.47
2023-01-04T10:01:00.554Z,5.50
2023-01-04T10:03:34.537Z,5.56
2023-01-04T10:06:04.612Z,5.61
2023-01-04T10:08:33.553Z,5.63
2023-01-04T10:11:18.564Z,5.66
2023-01-04T10:14:07.168Z,5.66
2023-01-04T10:17:13.312Z,5.67
2023-01-04T10:23:40.738Z,5.66
2023-01-04T10:26:14.817Z,5.65
2023-01-04T10:29:08.339Z,5.65
2023-01-04T10:31:44.850Z,5.67
2023-01-04T10:34:25.631Z,5.69
2023-01-04T10:36:59.637Z,5.76
2023-01-04T10:39:33.464Z,5.78
2023-01-04T10:42:19.766Z,5.80
2023-01-04T10:45:09.489Z,5.77
2023-01-04T10:47:53.643Z,5.77
2023-01-04T10:50:28.434Z,5.76
2023-01-04T10:53:05.210Z,5.75
2023-01-04T10:55:47.141Z,5.78
2023-01-04T10:58:38.665Z,5.88
2023-01-04T11:01:17.247Z,5.95
2023-01-04T11:03:53.042Z,6.04
2023-01-04T11:06:27.824Z,6.20
2023-01-04T11:09:00.313Z,6.24
2023-01-04T11:11:35.113Z,6.29
2023-01-04T11:14:05.448Z,6.30
2023-01-04T11:16:34.108Z,6.27
2023-01-04T11:19:04.305Z,6.28
2023-01-04T11:21:42.183Z,6.31
2023-01-04T11:24:31.474Z,6.38
2023-01-04T11:27:07.107Z,6.41
2023-01-04T11:29:47.331Z,6.40
2023-01-04T11:32:28.742Z,6.40
2023-01-04T11:34:57.991Z,6.42
2023-01-04T11:37:30.236Z,6.42
2023-01-04T11:40:29.375Z,6.42
2023-01-04T11:43:16.417Z,6.41
2023-01-04T11:45:56.281Z,6.40
2023-01-04T11:48:39.667Z,6.38
2023-01-04T11:51:18.777Z,6.39
2023-01-04T11:53:57.651Z,6.38
2023-01-04T11:56:29.299Z,6.33
2023-01-04T11:59:22.882Z,6.29
2023-01-04T12:02:50.485Z,6.31
2023-01-04T12:05:29.061Z,6.36
2023-01-04T12:07:59.739Z,6.46
2023-01-04T12:10:29.682Z,6.49
2023-01-04T12:13:01.175Z,6.54
2023-01-04T12:15:40.327Z,6.62
2023-01-04T12:20:59.636Z,6.70
2023-01-04T12:23:28.407Z,6.69
2023-01-04T12:25:59.241Z,6.71
2023-01-04T12:28:34.413Z,6.75
2023-01-04T12:31:33.072Z,6.76
2023-01-04T12:34:42.443Z,6.78
2023-01-04T12:37:49.395Z,6.93
2023-01-04T12:40:56.410Z,7.01
2023-01-04T12:43:27.804Z,7.03
2023-01-04T12:46:59.052Z,7.02
2023-01-04T12:50:00.579Z,7.08
2023-01-04T12:53:02.261Z,7.12
2023-01-04T12:56:00.253Z,7.18
2023-01-04T13:01:28.687Z,7.24
2023-01-04T13:04:05.638Z,7.34
2023-01-04T13:06:43.822Z,7.37
2023-01-04T13:09:23.700Z,7.41
2023-01-04T13:12:15.326Z,7.48
2023-01-04T13:14:50.247Z,7.50
2023-01-04T13:17:24.818Z,7.53
2023-01-04T13:19:53.741Z,7.41
2023-01-04T13:22:29.710Z,7.42
2023-01-04T13:25:02.970Z,7.38
2023-01-04T13:27:33.499Z,7.31
2023-01-04T13:30:03.408Z,7.25
2023-01-04T13:32:47.033Z,7.29
2023-01-04T13:35:23.402Z,7.32
2023-01-04T13:37:53.212Z,7.22
2023-01-04T13:40:29.639Z,7.18
2023-01-04T13:43:14.248Z,7.19
2023-01-04T13:45:53.591Z,7.23
2023-01-04T13:48:24.867Z,7.27
2023-01-04T13:51:04.999Z,7.20
2023-01-04T13:53:34.325Z,7.24
2023-01-04T13:56:04.501Z,7.21
2023-01-04T13:58:36.150Z,7.22
2023-01-04T14:01:08.913Z,7.18
2023-01-04T14:03:42.047Z,7.18
2023-01-04T14:06:27.496Z,7.18
2023-01-04T14:09:06.069Z,7.16
2023-01-04T14:12:09.104Z,7.18
2023-01-04T14:14:49.869Z,7.18
2023-01-04T14:17:36.019Z,7.29
2023-01-04T14:20:07.601Z,7.24
2023-01-04T14:22:43.093Z,7.25
2023-01-04T14:25:43.555Z,7.22
2023-01-04T14:28:33.921Z,7.31
2023-01-04T14:31:44.786Z,7.38
2023-01-04T14:34:15.702Z,7.41
2023-01-04T14:36:45.118Z,7.36
2023-01-04T14:39:36.376Z,7.36
2023-01-04T14:42:06.144Z,7.39
2023-01-04T14:44:36.243Z,7.41
2023-01-04T14:47:07.320Z,7.37
2023-01-04T14:49:35.872Z,7.36
2023-01-04T14:52:11.941Z,7.27
2023-01-04T14:54:40.539Z,7.26
2023-01-04T14:57:10.227Z,7.27
2023-01-04T14:59:38.800Z,7.28
2023-01-04T15:02:11.206Z,7.31
2023-01-04T15:04:40.072Z,7.27
2023-01-04T15:07:28.795Z,7.28
2023-01-04T15:09:57.325Z,7.29
2023-01-04T15:12:25.972Z,7.32
2023-01-04T15:14:54.570Z,7.31
2023-01-04T15:17:24.230Z,7.26
2023-01-04T15:19:52.895Z,7.31
2023-01-04T15:22:21.512Z,7.29
2023-01-04T15:24:50.065Z,7.21
2023-01-04T15:27:18.655Z,7.23
2023-01-04T15:29:47.240Z,7.27
2023-01-04T15:32:15.933Z,7.26
2023-01-04T15:34:47.116Z,7.21
2023-01-04T15:37:21.814Z,7.19
2023-01-04T15:39:56.729Z,7.22
2023-01-04T15:42:46.221Z,7.23
2023-01-04T15:45:14.523Z,7.26
2023-01-04T15:47:43.089Z,7.27
2023-01-04T15:50:12.837Z,7.25
2023-01-04T15:52:41.477Z,7.31
2023-01-04T15:55:10.765Z,7.27
2023-01-04T15:57:43.715Z,7.25
2023-01-04T16:00:14.408Z,7.30
2023-01-04T16:02:42.960Z,7.30
2023-01-04T16:05:12.712Z,7.32
2023-01-04T16:07:41.395Z,7.31
2023-01-04T16:10:10.725Z,7.35
2023-01-04T16:12:48.713Z,7.37
2023-01-04T16:15:22.756Z,7.39
2023-01-04T16:17:51.456Z,7.46
2023-01-04T16:20:21.743Z,7.46
2023-01-04T16:22:50.405Z,7.44
2023-01-04T16:25:19.019Z,7.47
2023-01-04T16:27:47.634Z,7.51
2023-01-04T16:30:16.352Z,7.47
2023-01-04T16:32:45.805Z,7.58
2023-01-04T16:35:14.438Z,7.56
2023-01-04T16:37:44.461Z,7.53
2023-01-04T16:40:14.020Z,7.57
2023-01-04T16:42:43.549Z,7.62
2023-01-04T16:45:12.799Z,7.52
2023-01-04T16:47:44.435Z,7.53
2023-01-04T16:50:14.118Z,7.59
2023-01-04T16:52:43.875Z,7.53
2023-01-04T16:55:12.550Z,7.55
2023-01-04T16:57:41.154Z,7.54
2023-01-04T17:00:11.098Z,7.55
2023-01-04T17:02:39.624Z,7.48
2023-01-04T17:05:08.933Z,7.46
2023-01-04T17:07:37.532Z,7.46
2023-01-04T17:10:08.551Z,7.25
2023-01-04T17:12:47.190Z,7.13
2023-01-04T17:15:43.168Z,7.07
2023-01-04T17:18:06.289Z,6.99
2023-01-04T17:20:34.976Z,7.03
2023-01-04T17:23:03.840Z,7.01
2023-01-04T17:25:33.858Z,7.18
2023-01-04T17:28:02.490Z,7.18
2023-01-04T17:30:31.303Z,7.20
2023-01-04T17:32:59.589Z,7.21
2023-01-04T17:35:28.242Z,7.17
2023-01-04T17:37:56.884Z,7.15
2023-01-04T17:40:25.521Z,7.31
2023-01-04T17:42:55.436Z,7.31
2023-01-04T17:45:23.794Z,7.08
2023-01-04T17:47:52.474Z,7.06
2023-01-04T17:50:22.206Z,7.07
2023-01-04T17:52:51.770Z,7.13
2023-01-04T17:55:21.463Z,7.06
2023-01-04T17:57:49.884Z,7.08
2023-01-04T18:00:20.515Z,7.19
2023-01-04T18:02:49.200Z,7.15
2023-01-04T18:05:17.889Z,7.14
2023-01-04T18:07:46.526Z,7.14
2023-01-04T18:10:21.522Z,7.11
2023-01-04T18:13:03.904Z,7.19
2023-01-04T18:15:36.179Z,7.24
2023-01-04T18:18:12.554Z,7.11
2023-01-04T18:20:41.139Z,7.09
2023-01-04T18:23:19.080Z,7.15
2023-01-04T18:25:52.805Z,7.10
2023-01-04T18:28:21.565Z,7.13
2023-01-04T18:30:51.539Z,7.14
2023-01-04T18:33:20.171Z,7.16
2023-01-04T18:35:48.719Z,7.18
2023-01-04T18:38:17.315Z,7.26
2023-01-04T18:40:46.836Z,7.28
2023-01-04T18:43:15.385Z,7.31
2023-01-04T18:45:43.982Z,7.31
2023-01-04T18:48:13.586Z,7.36
2023-01-04T18:50:42.622Z,7.39
2023-01-04T18:53:10.965Z,7.43
2023-01-04T18:55:40.251Z,7.40
2023-01-04T18:58:09.179Z,7.47
2023-01-04T19:00:37.769Z,7.42
2023-01-04T19:03:06.512Z,7.47
2023-01-04T19:05:36.425Z,7.48
2023-01-04T19:08:05.300Z,7.52
2023-01-04T19:10:33.904Z,7.53
2023-01-04T19:13:02.489Z,7.54
2023-01-04T19:15:30.891Z,7.60
2023-01-04T19:17:59.418Z,7.57
2023-01-04T19:20:27.761Z,7.59
2023-01-04T19:22:57.336Z,7.66
2023-01-04T19:25:28.487Z,7.58
2023-01-04T19:27:57.304Z,7.63
2023-01-04T19:30:25.891Z,7.60
2023-01-04T19:32:54.522Z,7.53
2023-01-04T19:35:23.115Z,7.61
2023-01-04T19:37:51.737Z,7.63
2023-01-04T19:40:21.438Z,7.68
2023-01-04T19:42:49.980Z,7.62
2023-01-04T19:45:19.109Z,7.55
2023-01-04T19:47:50.225Z,7.60
2023-01-04T19:50:19.125Z,7.58
2023-01-04T19:52:47.755Z,7.58
2023-01-04T19:55:16.353Z,7.57
2023-01-04T19:57:46.382Z,7.56
2023-01-04T20:00:16.094Z,7.68
2023-01-04T20:02:44.771Z,7.68
2023-01-04T20:05:13.387Z,7.63
2023-01-04T20:07:44.250Z,7.53
2023-01-04T20:10:14.629Z,7.62
2023-01-04T20:12:43.681Z,7.58
2023-01-04T20:15:14.273Z,7.60
2023-01-04T20:17:42.878Z,7.60
2023-01-04T20:20:11.993Z,7.58
2023-01-04T20:22:40.979Z,7.49
2023-01-04T20:25:10.016Z,7.39
2023-01-04T20:27:38.912Z,7.34
2023-01-04T20:30:09.304Z,7.38
2023-01-04T20:32:38.936Z,7.28
2023-01-04T20:35:08.282Z,7.26
2023-01-04T20:37:36.832Z,7.21
2023-01-04T20:40:06.029Z,7.20
2023-01-04T20:42:53.144Z,7.18
2023-01-04T20:45:21.389Z,7.25
2023-01-04T20:47:50.982Z,7.33
2023-01-04T20:50:19.243Z,7.38
2023-01-04T20:52:47.810Z,7.28
2023-01-04T20:55:17.699Z,7.21
2023-01-04T20:57:46.507Z,7.27
2023-01-04T21:00:16.558Z,7.37
2023-01-04T21:02:45.246Z,7.31
2023-01-04T21:05:15.455Z,7.40
2023-01-04T21:07:44.182Z,7.49
2023-01-04T21:10:12.745Z,7.48
2023-01-04T21:12:41.324Z,7.50
2023-01-04T21:15:10.771Z,7.55
2023-01-04T21:17:39.374Z,7.55
2023-01-04T21:20:08.927Z,7.62
2023-01-04T21:22:38.586Z,7.69
2023-01-04T21:25:07.829Z,7.80
2023-01-04T21:27:36.814Z,7.81
2023-01-04T21:30:06.906Z,7.86
2023-01-04T21:32:35.489Z,7.78
2023-01-04T21:35:04.195Z,7.81
2023-01-04T21:37:32.807Z,7.84
2023-01-04T21:40:02.532Z,7.88
2023-01-04T21:42:32.206Z,7.85
2023-01-04T21:45:00.452Z,7.85
2023-01-04T21:47:31.856Z,7.87
2023-01-04T21:50:00.499Z,7.88
2023-01-04T21:52:29.132Z,7.84
2023-01-04T21:54:57.684Z,7.90
2023-01-04T21:57:27.287Z,7.83
2023-01-04T21:59:55.847Z,7.83
2023-01-04T22:02:24.532Z,7.80
2023-01-04T22:04:53.151Z,7.81
2023-01-04T22:07:21.758Z,7.89
2023-01-04T22:09:57.042Z,7.98
2023-01-04T22:12:27.267Z,7.94
2023-01-04T22:14:55.720Z,7.85
2023-01-04T22:17:24.447Z,7.91
2023-01-04T22:19:53.040Z,7.93
2023-01-04T22:22:21.431Z,7.95
2023-01-04T22:24:49.717Z,7.95
2023-01-04T22:27:18.373Z,7.98
2023-01-04T22:29:47.997Z,7.97
2023-01-04T22:32:16.413Z,7.92
2023-01-04T22:34:44.690Z,7.88
2023-01-04T22:37:13.310Z,7.94
2023-01-04T22:39:41.853Z,7.96
2023-01-04T22:42:10.486Z,7.99
2023-01-04T22:44:39.215Z,8.04
2023-01-04T22:47:09.541Z,8.06
2023-01-04T22:49:38.254Z,8.04
2023-01-04T22:52:07.007Z,8.03
2023-01-04T22:54:35.589Z,7.98
2023-01-04T22:57:04.342Z,8.02
2023-01-04T22:59:32.902Z,8.00
2023-01-04T23:02:01.353Z,8.00
2023-01-04T23:04:31.049Z,8.06
2023-01-04T23:06:59.713Z,8.11
2023-01-04T23:09:28.290Z,8.03
2023-01-04T23:11:56.938Z,8.02
2023-01-04T23:14:25.589Z,8.07
2023-01-04T23:16:54.349Z,8.02
2023-01-04T23:19:22.975Z,8.01
2023-01-04T23:21:52.649Z,7.97
2023-01-04T23:24:21.418Z,7.93
2023-01-04T23:26:49.930Z,7.96
2023-01-04T23:29:18.455Z,7.98
2023-01-04T23:31:47.085Z,7.95
2023-01-04T23:34:15.511Z,7.93
2023-01-04T23:36:44.200Z,7.95
2023-01-04T23:39:17.023Z,7.93
2023-01-04T23:41:46.107Z,7.95
2023-01-04T23:44:18.421Z,7.93
2023-01-04T23:46:47.464Z,7.91
2023-01-04T23:49:16.032Z,7.90
2023-01-04T23:51:44.757Z,7.92
2023-01-04T23:54:14.873Z,7.90
2023-01-04T23:56:43.466Z,7.88
2023-01-04T23:59:12.144Z,7.94
